Time;durP1;ratioP1;P1;durP2;ratioP2;P2;SDS_P1;SDS_P2;PMS_P1;PMS_P2;Temp;Humidity;BMP_temperature;BMP_pressure;BME280_temperature;BME280_humidity;BME280_pressure;Samples;Min_cycle;Max_cycle;Signal;HPM_P1;HPM_P2
2021/07/01 00:00:45;;;;;;;8.40;6.50;;;17.10;99.90;;;;;;5075354;28;20466;-68
2021/07/01 00:03:11;;;;;;;11.93;7.40;;;17.10;99.90;;;;;;5075250;28;20808;-68
2021/07/01 00:05:40;;;;;;;9.47;7.20;;;17.20;99.90;;;;;;5075476;28;20457;-68
2021/07/01 00:08:07;;;;;;;9.30;7.03;;;17.20;99.90;;;;;;5075145;28;20461;-68
2021/07/01 00:10:33;;;;;;;8.63;7.73;;;17.20;99.90;;;;;;5075304;28;20454;-68
2021/07/01 00:13:00;;;;;;;9.97;8.10;;;17.20;99.90;;;;;;5075164;28;20454;-68
2021/07/01 00:15:29;;;;;;;10.37;8.50;;;17.10;99.90;;;;;;5074702;28;20523;-68
2021/07/01 00:17:56;;;;;;;10.30;8.60;;;17.10;99.90;;;;;;5074914;28;20914;-68
2021/07/01 00:20:24;;;;;;;11.60;8.97;;;17.10;99.90;;;;;;5074892;28;20466;-68
2021/07/01 00:22:53;;;;;;;11.50;8.60;;;17.10;99.90;;;;;;5074392;28;20485;-68
2021/07/01 00:25:21;;;;;;;10.27;7.87;;;17.10;99.90;;;;;;5074972;28;20458;-68
2021/07/01 00:27:48;;;;;;;12.00;8.77;;;17.00;99.90;;;;;;5074902;28;20531;-67
2021/07/01 00:30:17;;;;;;;12.87;9.70;;;17.00;99.90;;;;;;5074924;28;20790;-70
2021/07/01 00:32:45;;;;;;;14.17;9.07;;;17.00;99.90;;;;;;5074831;28;20465;-69
2021/07/01 00:35:15;;;;;;;11.07;8.40;;;17.00;99.90;;;;;;5074688;28;20458;-69
2021/07/01 00:37:43;;;;;;;10.83;8.70;;;17.00;99.90;;;;;;5074720;28;20927;-68
2021/07/01 00:40:13;;;;;;;9.80;8.07;;;17.00;99.90;;;;;;5075041;28;20768;-67
2021/07/01 00:42:40;;;;;;;11.73;8.30;;;17.00;99.90;;;;;;5074828;28;20478;-67
2021/07/01 00:45:09;;;;;;;10.17;7.50;;;17.00;99.90;;;;;;5074387;28;20462;-68
2021/07/01 00:47:36;;;;;;;10.57;8.07;;;17.00;99.90;;;;;;5074595;28;20485;-68
2021/07/01 00:50:06;;;;;;;8.23;7.43;;;17.00;99.90;;;;;;5074923;28;20465;-68
2021/07/01 00:52:32;;;;;;;8.30;7.40;;;17.00;99.90;;;;;;5074186;28;20996;-68
2021/07/01 00:54:59;;;;;;;11.83;7.77;;;17.00;99.90;;;;;;5074795;28;20462;-68
2021/07/01 00:57:32;;;;;;;11.67;8.13;;;17.00;99.90;;;;;;5074158;28;20850;-68
2021/07/01 00:59:58;;;;;;;12.50;8.10;;;17.00;99.90;;;;;;5074628;28;20887;-68
2021/07/01 01:02:27;;;;;;;9.90;7.97;;;17.00;99.90;;;;;;5074551;28;20493;-68
2021/07/01 01:04:54;;;;;;;11.47;8.57;;;17.00;99.90;;;;;;5074534;28;20459;-68
2021/07/01 01:07:20;;;;;;;12.70;9.20;;;17.00;99.90;;;;;;5074107;28;20950;-68
2021/07/01 01:09:47;;;;;;;10.50;8.90;;;17.00;99.90;;;;;;5074517;28;20457;-68
2021/07/01 01:12:14;;;;;;;11.73;8.97;;;16.90;99.90;;;;;;5074620;28;20458;-69
2021/07/01 01:14:42;;;;;;;11.03;7.87;;;17.00;99.90;;;;;;5074172;28;20459;-68
2021/07/01 01:17:08;;;;;;;13.50;9.70;;;17.00;99.90;;;;;;5074155;28;20458;-68
2021/07/01 01:19:35;;;;;;;10.43;7.93;;;17.00;99.90;;;;;;5074590;28;20779;-68
2021/07/01 01:22:04;;;;;;;12.13;8.40;;;17.00;99.90;;;;;;5074074;28;20475;-68
2021/07/01 01:24:34;;;;;;;12.93;9.00;;;17.00;99.90;;;;;;5074362;28;20465;-69
2021/07/01 01:27:01;;;;;;;11.70;8.73;;;17.00;99.90;;;;;;5074296;28;20490;-69
2021/07/01 01:29:28;;;;;;;13.77;8.87;;;17.00;99.90;;;;;;5074175;28;20462;-68
2021/07/01 01:31:54;;;;;;;14.00;10.13;;;17.00;99.90;;;;;;5074290;28;20466;-69
2021/07/01 01:34:21;;;;;;;14.50;10.63;;;17.00;99.90;;;;;;5076781;28;20461;-69
2021/07/01 01:36:48;;;;;;;15.03;10.40;;;17.00;99.90;;;;;;5078537;28;20810;-69
2021/07/01 01:39:20;;;;;;;18.00;10.70;;;17.00;99.90;;;;;;5078559;28;20462;-68
2021/07/01 01:41:47;;;;;;;16.17;10.97;;;17.10;99.90;;;;;;5079006;28;20462;-69
2021/07/01 01:44:14;;;;;;;15.10;10.43;;;17.10;99.90;;;;;;5077743;28;20614;-68
2021/07/01 01:46:41;;;;;;;14.43;9.60;;;17.10;99.90;;;;;;5077587;28;20464;-69
2021/07/01 01:49:12;;;;;;;16.70;10.47;;;17.10;99.90;;;;;;5077651;28;20439;-68
2021/07/01 01:51:39;;;;;;;15.27;9.90;;;17.00;99.90;;;;;;5077794;28;20435;-68
2021/07/01 01:54:07;;;;;;;12.37;9.73;;;17.10;99.90;;;;;;5077849;28;20454;-68
2021/07/01 01:56:45;;;;;;;13.30;9.33;;;17.00;99.90;;;;;;5077714;28;20476;-69
2021/07/01 01:59:12;;;;;;;11.50;7.97;;;17.00;99.90;;;;;;5077838;28;20438;-68
2021/07/01 02:01:39;;;;;;;15.17;8.67;;;17.00;99.90;;;;;;5077618;28;20481;-69
2021/07/01 02:04:06;;;;;;;11.20;7.93;;;16.90;99.90;;;;;;5077439;28;20762;-68
2021/07/01 02:06:34;;;;;;;11.20;8.40;;;16.90;99.90;;;;;;5077478;28;20454;-68
2021/07/01 02:09:00;;;;;;;10.80;7.57;;;16.90;99.90;;;;;;5077639;28;20454;-69
2021/07/01 02:11:29;;;;;;;13.30;8.77;;;16.90;99.90;;;;;;5077361;28;20465;-68
2021/07/01 02:13:57;;;;;;;15.00;8.73;;;16.80;99.90;;;;;;5077500;28;20461;-68
2021/07/01 02:16:24;;;;;;;11.03;8.43;;;16.80;99.90;;;;;;5077696;28;20458;-68
2021/07/01 02:18:51;;;;;;;14.07;7.83;;;16.80;99.90;;;;;;5077270;28;20458;-68
2021/07/01 02:21:19;;;;;;;10.80;6.90;;;16.70;99.90;;;;;;5078369;28;20782;-68
2021/07/01 02:23:45;;;;;;;10.00;7.03;;;16.70;99.90;;;;;;5076955;28;20462;-68
2021/07/01 02:26:12;;;;;;;9.07;6.90;;;16.70;99.90;;;;;;5077455;28;20795;-68
2021/07/01 02:28:39;;;;;;;10.60;7.90;;;16.70;99.90;;;;;;5077916;28;20469;-69
2021/07/01 02:31:07;;;;;;;11.73;6.77;;;16.70;99.90;;;;;;5077375;28;20458;-68
2021/07/01 02:33:34;;;;;;;10.90;6.87;;;16.70;99.90;;;;;;5077408;28;20906;-68
2021/07/01 02:36:00;;;;;;;10.90;7.07;;;16.60;99.90;;;;;;5077147;28;20458;-69
2021/07/01 02:38:27;;;;;;;9.77;6.87;;;16.60;99.90;;;;;;5077268;28;20473;-68
2021/07/01 02:40:54;;;;;;;9.40;6.33;;;16.60;99.90;;;;;;5076819;28;20454;-68
2021/07/01 02:43:21;;;;;;;9.27;6.20;;;16.60;99.90;;;;;;5077084;28;20478;-68
2021/07/01 02:45:47;;;;;;;9.47;5.73;;;16.60;99.90;;;;;;5075627;28;20926;-68
2021/07/01 02:48:15;;;;;;;10.00;6.37;;;16.70;99.90;;;;;;5076883;28;20571;-68
2021/07/01 02:50:42;;;;;;;10.13;6.40;;;16.60;99.90;;;;;;5077255;28;20804;-68
2021/07/01 02:53:09;;;;;;;9.90;5.80;;;16.60;99.90;;;;;;5076627;28;20458;-69
2021/07/01 02:55:37;;;;;;;7.70;5.73;;;16.70;99.90;;;;;;5076235;28;20458;-68
2021/07/01 02:58:04;;;;;;;7.37;5.80;;;16.70;99.90;;;;;;5077109;28;20458;-68
2021/07/01 03:00:31;;;;;;;6.43;4.87;;;16.70;99.90;;;;;;5077143;28;20450;-69
2021/07/01 03:02:58;;;;;;;6.10;4.50;;;16.70;99.90;;;;;;5076626;28;20478;-68
2021/07/01 03:05:26;;;;;;;5.30;4.10;;;16.60;99.90;;;;;;5076885;28;20466;-69
2021/07/01 03:07:52;;;;;;;4.80;3.73;;;16.60;99.90;;;;;;5077060;28;20466;-69
2021/07/01 03:10:19;;;;;;;6.20;3.80;;;16.50;99.90;;;;;;5076298;28;20515;-68
2021/07/01 03:12:48;;;;;;;4.60;4.20;;;16.50;99.90;;;;;;5076509;28;20527;-68
2021/07/01 03:15:15;;;;;;;3.93;3.50;;;16.50;99.90;;;;;;5076263;28;20466;-69
2021/07/01 03:17:41;;;;;;;3.67;3.10;;;16.40;99.90;;;;;;5076607;28;20455;-68
2021/07/01 03:20:09;;;;;;;4.03;2.77;;;16.30;99.90;;;;;;5076780;28;20458;-68
2021/07/01 03:22:37;;;;;;;5.10;3.23;;;16.30;99.90;;;;;;5076126;28;20808;-68
2021/07/01 03:25:04;;;;;;;3.27;2.97;;;16.20;99.90;;;;;;5076286;28;20474;-68
2021/07/01 03:27:33;;;;;;;3.23;2.93;;;16.20;99.90;;;;;;5076389;28;20458;-69
2021/07/01 03:30:00;;;;;;;3.80;2.70;;;16.20;99.90;;;;;;5076496;28;20470;-68
2021/07/01 03:32:27;;;;;;;3.23;2.47;;;16.10;99.90;;;;;;5075746;28;20465;-68
2021/07/01 03:34:54;;;;;;;3.00;2.70;;;16.10;99.90;;;;;;5076139;28;20519;-68
2021/07/01 03:37:20;;;;;;;2.50;2.30;;;16.10;99.90;;;;;;5075956;28;20466;-69
2021/07/01 03:39:48;;;;;;;2.73;2.47;;;16.00;99.90;;;;;;5075764;28;20922;-69
2021/07/01 03:42:19;;;;;;;3.70;2.80;;;16.00;99.90;;;;;;5075859;28;20485;-69
2021/07/01 03:44:45;;;;;;;3.43;2.33;;;16.00;99.90;;;;;;5075875;28;20461;-68
2021/07/01 03:47:12;;;;;;;3.27;2.87;;;16.00;99.90;;;;;;5075838;28;20486;-69
2021/07/01 03:49:41;;;;;;;2.93;2.63;;;16.00;99.90;;;;;;5075472;28;20458;-68
2021/07/01 03:52:08;;;;;;;4.20;2.33;;;16.00;99.90;;;;;;5075825;28;20450;-68
2021/07/01 03:54:35;;;;;;;3.00;2.70;;;15.90;99.90;;;;;;5076043;28;20927;-69
2021/07/01 03:57:03;;;;;;;2.37;1.77;;;15.90;99.90;;;;;;5076004;28;20524;-69
2021/07/01 03:59:30;;;;;;;2.00;1.80;;;15.90;99.90;;;;;;5075720;28;20458;-68
2021/07/01 04:01:58;;;;;;;2.77;2.10;;;15.90;99.90;;;;;;5075871;28;20454;-69
2021/07/01 04:04:25;;;;;;;3.20;2.00;;;15.90;99.90;;;;;;5075762;28;20455;-69
2021/07/01 04:06:52;;;;;;;1.93;1.83;;;15.80;99.90;;;;;;5075389;28;20772;-69
2021/07/01 04:09:18;;;;;;;3.10;1.60;;;15.80;99.90;;;;;;5075592;28;20462;-69
2021/07/01 04:11:47;;;;;;;1.80;1.50;;;15.80;99.90;;;;;;5075353;28;20454;-68
2021/07/01 04:14:17;;;;;;;2.00;1.60;;;15.80;99.90;;;;;;5075629;28;20672;-69
2021/07/01 04:16:45;;;;;;;3.20;2.10;;;15.70;99.90;;;;;;5075321;28;20541;-69
2021/07/01 04:19:12;;;;;;;2.07;1.83;;;15.70;99.90;;;;;;5075259;28;20516;-69
2021/07/01 04:21:39;;;;;;;2.13;1.80;;;15.70;99.90;;;;;;5075139;28;20462;-69
2021/07/01 04:24:06;;;;;;;1.70;1.40;;;15.70;99.90;;;;;;5074788;28;20489;-69
2021/07/01 04:26:33;;;;;;;2.27;1.80;;;15.60;99.90;;;;;;5075392;28;20465;-69
2021/07/01 04:29:00;;;;;;;2.27;1.50;;;15.60;99.90;;;;;;5074606;28;20454;-69
2021/07/01 04:31:28;;;;;;;2.03;1.83;;;15.60;99.90;;;;;;5075376;28;20830;-69
2021/07/01 04:33:55;;;;;;;2.07;1.40;;;15.60;99.90;;;;;;5074892;28;20455;-69
2021/07/01 04:36:21;;;;;;;1.60;1.50;;;15.60;99.90;;;;;;5074807;28;20458;-68
2021/07/01 04:38:48;;;;;;;3.90;1.63;;;15.60;99.90;;;;;;5074717;28;20465;-69
2021/07/01 04:41:19;;;;;;;1.50;1.40;;;15.60;99.90;;;;;;5074760;28;20450;-69
2021/07/01 04:43:45;;;;;;;1.63;1.53;;;15.60;99.90;;;;;;5075099;28;20477;-69
2021/07/01 04:46:12;;;;;;;2.10;1.30;;;15.60;99.90;;;;;;5074992;28;20473;-68
2021/07/01 04:48:43;;;;;;;2.10;1.77;;;15.60;99.90;;;;;;5074844;28;20525;-68
2021/07/01 04:51:11;;;;;;;2.53;1.70;;;15.60;99.90;;;;;;5074886;28;20782;-68
2021/07/01 04:53:39;;;;;;;2.10;1.70;;;15.60;99.90;;;;;;5074455;28;20450;-68
2021/07/01 04:56:08;;;;;;;2.40;1.80;;;15.50;99.90;;;;;;5074953;28;20460;-68
2021/07/01 04:58:35;;;;;;;3.50;2.27;;;15.50;99.90;;;;;;5074825;28;20458;-68
2021/07/01 05:01:01;;;;;;;1.90;1.60;;;15.50;99.90;;;;;;5074421;28;20469;-68
2021/07/01 05:03:28;;;;;;;1.90;1.70;;;15.50;99.90;;;;;;5074021;28;20481;-68
2021/07/01 05:05:56;;;;;;;2.23;1.53;;;15.50;99.90;;;;;;5074658;28;20466;-68
2021/07/01 05:08:23;;;;;;;1.70;1.50;;;15.50;99.90;;;;;;5077558;28;20454;-68
2021/07/01 05:10:50;;;;;;;2.00;1.90;;;15.50;99.90;;;;;;5082810;28;20480;-68
2021/07/01 05:13:16;;;;;;;2.77;1.77;;;15.60;99.90;;;;;;5082926;28;20829;-68
2021/07/01 05:15:43;;;;;;;3.50;1.77;;;15.60;99.90;;;;;;5081335;28;20464;-68
2021/07/01 05:18:10;;;;;;;4.23;1.80;;;15.60;99.90;;;;;;5081374;28;20458;-68
2021/07/01 05:20:37;;;;;;;2.07;1.50;;;15.60;99.90;;;;;;5081613;28;20454;-68
2021/07/01 05:23:05;;;;;;;1.90;1.70;;;15.60;99.90;;;;;;5081666;28;20482;-69
2021/07/01 05:25:32;;;;;;;1.70;1.60;;;15.60;99.90;;;;;;5081572;28;20458;-68
2021/07/01 05:28:08;;;;;;;1.50;1.40;;;15.60;99.90;;;;;;5081142;28;20928;-67
2021/07/01 05:30:35;;;;;;;1.70;1.30;;;15.50;99.90;;;;;;5081540;28;20442;-68
2021/07/01 05:33:02;;;;;;;1.50;1.30;;;15.40;99.90;;;;;;5081700;28;20465;-67
2021/07/01 05:35:32;;;;;;;1.40;1.03;;;15.40;99.90;;;;;;5081606;28;20462;-68
2021/07/01 05:37:59;;;;;;;2.90;1.60;;;15.30;99.90;;;;;;5081581;28;20450;-69
2021/07/01 05:40:27;;;;;;;1.40;1.00;;;15.30;99.90;;;;;;5081049;28;20461;-69
2021/07/01 05:42:54;;;;;;;1.40;1.20;;;15.30;99.90;;;;;;5081918;28;20477;-69
2021/07/01 05:45:20;;;;;;;1.80;1.20;;;15.30;99.90;;;;;;5081661;28;20458;-69
2021/07/01 05:47:47;;;;;;;2.07;1.20;;;15.30;99.90;;;;;;5081256;28;20489;-69
2021/07/01 05:50:14;;;;;;;1.73;1.13;;;15.30;99.90;;;;;;5081824;28;20464;-68
2021/07/01 05:52:43;;;;;;;1.47;1.30;;;15.30;99.90;;;;;;5082547;28;20553;-68
2021/07/01 05:55:10;;;;;;;1.80;1.33;;;15.30;99.90;;;;;;5081449;28;20460;-69
2021/07/01 05:57:39;;;;;;;1.60;1.50;;;15.30;99.90;;;;;;5081065;28;20458;-68
2021/07/01 06:00:09;;;;;;;1.60;1.40;;;15.30;99.90;;;;;;5080715;28;20561;-68
2021/07/01 06:02:35;;;;;;;1.60;1.20;;;15.30;99.90;;;;;;5080814;28;20457;-68
2021/07/01 06:05:02;;;;;;;1.40;1.07;;;15.40;99.90;;;;;;5080942;28;20468;-69
2021/07/01 06:07:29;;;;;;;1.80;1.40;;;15.40;99.90;;;;;;5080898;28;20802;-68
2021/07/01 06:09:58;;;;;;;1.70;1.40;;;15.30;99.90;;;;;;5081003;28;20466;-68
2021/07/01 06:12:25;;;;;;;4.40;1.90;;;15.30;99.90;;;;;;5081383;28;20468;-68
2021/07/01 06:14:59;;;;;;;2.83;1.63;;;15.40;99.90;;;;;;5080884;28;20450;-69
2021/07/01 06:17:27;;;;;;;2.30;1.77;;;15.40;99.90;;;;;;5080788;28;20461;-68
2021/07/01 06:20:03;;;;;;;2.80;2.00;;;15.40;99.90;;;;;;5078263;28;20495;-69
2021/07/01 06:22:30;;;;;;;1.77;1.67;;;15.40;99.90;;;;;;5077585;28;20877;-68
2021/07/01 06:24:57;;;;;;;1.87;1.40;;;15.30;99.90;;;;;;5077508;28;20883;-68
2021/07/01 06:27:32;;;;;;;2.70;2.50;;;15.30;99.90;;;;;;5077994;28;20457;-69
2021/07/01 06:30:02;;;;;;;2.57;1.80;;;15.30;99.90;;;;;;5078162;28;20442;-69
2021/07/01 06:32:29;;;;;;;2.73;1.83;;;15.30;99.90;;;;;;5078300;28;20453;-68
2021/07/01 06:34:56;;;;;;;1.67;1.50;;;15.20;99.90;;;;;;5077279;28;20450;-69
2021/07/01 06:37:24;;;;;;;2.40;1.67;;;15.20;99.90;;;;;;5077797;28;20481;-68
2021/07/01 06:39:51;;;;;;;1.73;1.30;;;15.20;99.90;;;;;;5077212;28;20460;-68
2021/07/01 06:42:22;;;;;;;1.70;1.27;;;15.20;99.90;;;;;;5077347;28;20537;-69
2021/07/01 06:44:49;;;;;;;2.27;1.93;;;15.20;99.90;;;;;;5076935;28;20490;-67
2021/07/01 06:47:18;;;;;;;2.20;2.00;;;15.20;99.90;;;;;;5077112;28;20546;-67
2021/07/01 06:49:48;;;;;;;2.03;1.80;;;15.10;99.90;;;;;;5077155;28;20519;-68
2021/07/01 06:52:16;;;;;;;3.00;2.30;;;15.10;99.90;;;;;;5077021;28;20461;-68
2021/07/01 06:54:43;;;;;;;2.30;2.00;;;15.10;99.90;;;;;;5077066;28;20454;-67
2021/07/01 06:57:10;;;;;;;2.77;1.93;;;15.10;99.90;;;;;;5077175;28;20468;-68
2021/07/01 06:59:37;;;;;;;2.80;2.20;;;15.10;99.90;;;;;;5077095;28;20477;-69
2021/07/01 07:02:04;;;;;;;3.37;2.40;;;15.10;99.90;;;;;;5077846;28;20490;-69
2021/07/01 07:04:34;;;;;;;2.70;2.10;;;15.10;99.90;;;;;;5078242;28;20539;-69
2021/07/01 07:07:04;;;;;;;2.40;2.13;;;15.00;99.90;;;;;;5080257;28;20562;-69
2021/07/01 07:09:31;;;;;;;2.40;2.20;;;15.00;99.90;;;;;;5078478;28;20490;-69
2021/07/01 07:11:58;;;;;;;2.07;1.87;;;15.00;99.90;;;;;;5078159;28;20461;-69
2021/07/01 07:14:24;;;;;;;3.23;1.93;;;15.00;99.90;;;;;;5079082;28;20465;-69
2021/07/01 07:16:53;;;;;;;2.50;1.97;;;15.00;99.90;;;;;;5078884;28;20465;-68
2021/07/01 07:19:22;;;;;;;2.30;2.00;;;15.00;99.90;;;;;;5079533;28;20458;-67
2021/07/01 07:21:51;;;;;;;2.50;1.90;;;15.00;99.90;;;;;;5078896;28;20871;-69
2021/07/01 07:24:21;;;;;;;2.77;2.03;;;15.00;99.90;;;;;;5077530;28;20478;-68
2021/07/01 07:26:50;;;;;;;2.37;1.80;;;15.00;99.90;;;;;;5078383;28;20454;-69
2021/07/01 07:29:18;;;;;;;2.80;2.10;;;15.00;99.90;;;;;;5078316;28;20454;-69
2021/07/01 07:31:47;;;;;;;3.13;1.87;;;14.90;99.90;;;;;;5076795;28;20469;-68
2021/07/01 07:34:14;;;;;;;2.20;1.97;;;15.00;99.90;;;;;;5076998;28;20461;-68
2021/07/01 07:36:41;;;;;;;3.03;1.80;;;15.00;99.90;;;;;;5076577;28;20458;-68
2021/07/01 07:39:09;;;;;;;3.20;2.50;;;15.00;99.90;;;;;;5076762;28;20458;-68
2021/07/01 07:41:36;;;;;;;4.80;2.63;;;14.90;99.90;;;;;;5077271;28;20781;-68
2021/07/01 07:44:03;;;;;;;3.10;2.77;;;15.00;99.90;;;;;;5076959;28;20497;-68
2021/07/01 07:46:31;;;;;;;3.27;2.80;;;15.00;99.90;;;;;;5076087;28;20466;-68
2021/07/01 07:48:59;;;;;;;3.57;2.13;;;15.00;99.90;;;;;;5076715;28;20505;-69
2021/07/01 07:51:29;;;;;;;3.57;2.50;;;15.00;99.90;;;;;;5075948;28;20458;-69
2021/07/01 07:54:01;;;;;;;3.00;2.70;;;15.10;99.90;;;;;;5076224;28;20579;-69
2021/07/01 07:56:37;;;;;;;3.10;1.97;;;15.10;99.90;;;;;;5075564;28;20442;-69
2021/07/01 07:59:05;;;;;;;3.13;2.40;;;15.00;99.90;;;;;;5076220;28;20775;-70
2021/07/01 08:01:32;;;;;;;2.60;2.27;;;15.00;99.90;;;;;;5076127;28;20489;-68
2021/07/01 08:04:04;;;;;;;4.67;1.83;;;15.00;99.90;;;;;;5076341;28;20555;-68
2021/07/01 08:06:31;;;;;;;2.07;1.80;;;15.00;99.90;;;;;;5077511;28;20474;-68
2021/07/01 08:09:00;;;;;;;1.90;1.70;;;15.00;99.90;;;;;;5077001;28;20480;-68
2021/07/01 08:11:27;;;;;;;2.50;1.87;;;15.00;99.90;;;;;;5075816;28;20465;-68
2021/07/01 08:13:58;;;;;;;2.73;1.80;;;14.90;99.90;;;;;;5075343;28;20461;-69
2021/07/01 08:16:25;;;;;;;2.70;2.33;;;14.90;99.90;;;;;;5075728;28;20875;-69
2021/07/01 08:18:53;;;;;;;3.97;2.17;;;14.90;99.90;;;;;;5075196;28;20465;-67
2021/07/01 08:21:20;;;;;;;2.00;1.80;;;14.90;99.90;;;;;;5075108;28;20462;-68
2021/07/01 08:23:48;;;;;;;2.00;1.43;;;15.00;99.90;;;;;;5075259;28;20474;-68
2021/07/01 08:26:15;;;;;;;1.80;1.50;;;15.00;99.90;;;;;;5075502;28;20457;-68
2021/07/01 08:28:42;;;;;;;2.30;1.70;;;15.10;99.90;;;;;;5074851;28;20458;-67
2021/07/01 08:31:12;;;;;;;2.20;1.83;;;15.00;99.90;;;;;;5074967;28;20473;-68
2021/07/01 08:33:41;;;;;;;4.20;2.47;;;15.00;99.90;;;;;;5075796;28;20519;-68
2021/07/01 08:36:12;;;;;;;2.40;1.90;;;15.00;99.90;;;;;;5074958;28;20531;-68
2021/07/01 08:38:39;;;;;;;2.20;1.90;;;15.00;99.90;;;;;;5075301;28;20449;-69
2021/07/01 08:41:14;;;;;;;2.47;2.27;;;15.00;99.90;;;;;;5074492;28;20918;-69
2021/07/01 08:43:52;;;;;;;2.30;2.10;;;15.00;99.90;;;;;;5074711;28;20543;-69
2021/07/01 08:46:25;;;;;;;2.37;2.17;;;14.90;99.90;;;;;;5075205;28;20449;-69
2021/07/01 08:49:08;;;;;;;1.80;1.70;;;14.90;99.90;;;;;;5075781;28;20490;-69
2021/07/01 08:51:38;;;;;;;3.13;2.10;;;14.90;99.90;;;;;;5078231;28;20905;-69
2021/07/01 08:54:24;;;;;;;1.70;1.60;;;14.90;99.90;;;;;;5077263;28;20461;-69
2021/07/01 08:56:53;;;;;;;10.80;2.20;;;14.90;99.90;;;;;;5076251;28;20434;-67
2021/07/01 08:59:22;;;;;;;2.30;2.10;;;14.90;99.90;;;;;;5075256;28;20968;-68
2021/07/01 09:01:57;;;;;;;2.23;1.87;;;14.90;99.90;;;;;;5075405;28;20454;-67
2021/07/01 09:04:29;;;;;;;2.43;2.20;;;14.90;99.90;;;;;;5075262;28;20489;-68
2021/07/01 09:07:02;;;;;;;2.80;2.50;;;14.90;99.90;;;;;;5075491;28;20439;-68
2021/07/01 09:09:35;;;;;;;2.90;2.70;;;14.90;99.90;;;;;;5074405;28;20927;-69
2021/07/01 09:12:04;;;;;;;2.70;2.47;;;14.90;99.90;;;;;;5075327;28;20771;-68
2021/07/01 09:14:32;;;;;;;2.77;2.57;;;14.90;99.90;;;;;;5075225;28;20915;-67
2021/07/01 09:17:03;;;;;;;3.50;2.80;;;15.00;99.90;;;;;;5075252;28;20531;-68
2021/07/01 09:19:31;;;;;;;2.60;2.27;;;15.00;99.90;;;;;;5075180;28;20496;-69
2021/07/01 09:22:01;;;;;;;4.40;2.50;;;15.00;99.90;;;;;;5075144;28;20457;-68
2021/07/01 09:24:28;;;;;;;2.57;2.00;;;15.00;99.90;;;;;;5075586;28;20517;-68
2021/07/01 09:26:58;;;;;;;2.73;2.50;;;15.00;99.90;;;;;;5074066;28;20489;-68
2021/07/01 09:29:26;;;;;;;3.47;2.50;;;15.00;99.90;;;;;;5074645;28;20512;-68
2021/07/01 09:31:55;;;;;;;3.60;2.90;;;15.00;99.90;;;;;;5074342;28;20462;-68
2021/07/01 09:34:24;;;;;;;3.40;3.10;;;14.90;99.90;;;;;;5074744;28;20454;-68
2021/07/01 09:36:52;;;;;;;3.17;2.97;;;14.90;99.90;;;;;;5074452;28;20788;-68
2021/07/01 09:39:21;;;;;;;4.10;3.70;;;14.80;99.90;;;;;;5074768;28;20473;-68
2021/07/01 09:41:49;;;;;;;4.13;3.73;;;14.80;99.90;;;;;;5074681;28;20458;-69
2021/07/01 09:44:18;;;;;;;4.30;3.90;;;14.80;99.90;;;;;;5074896;28;20773;-68
2021/07/01 09:46:48;;;;;;;4.20;3.80;;;14.80;99.90;;;;;;5074774;28;20846;-68
2021/07/01 09:49:19;;;;;;;3.77;3.47;;;14.80;99.90;;;;;;5074569;28;20443;-68
2021/07/01 09:51:48;;;;;;;5.40;4.00;;;14.70;99.90;;;;;;5074594;28;20443;-68
2021/07/01 09:54:16;;;;;;;4.67;3.70;;;14.70;99.90;;;;;;5075478;28;20549;-69
2021/07/01 09:56:43;;;;;;;4.20;3.13;;;14.70;99.90;;;;;;5078015;28;20623;-69
2021/07/01 09:59:18;;;;;;;4.53;4.13;;;14.70;99.90;;;;;;5079660;28;20771;-69
2021/07/01 10:01:45;;;;;;;4.07;3.77;;;14.80;99.90;;;;;;5078082;28;20446;-69
2021/07/01 10:04:12;;;;;;;5.93;3.87;;;14.80;99.90;;;;;;5078037;28;20485;-68
2021/07/01 10:06:39;;;;;;;5.03;4.53;;;14.80;99.90;;;;;;5078381;28;20481;-68
2021/07/01 10:09:07;;;;;;;5.70;5.20;;;14.80;99.90;;;;;;5079638;28;20464;-67
2021/07/01 10:11:37;;;;;;;5.53;5.03;;;14.80;99.90;;;;;;5079048;28;20458;-69
2021/07/01 10:14:05;;;;;;;5.97;5.37;;;14.80;99.90;;;;;;5078325;28;20926;-68
2021/07/01 10:16:34;;;;;;;5.97;5.37;;;14.80;99.90;;;;;;5077781;28;20813;-67
2021/07/01 10:19:03;;;;;;;5.83;5.23;;;14.80;99.90;;;;;;5078146;28;20488;-69
2021/07/01 10:21:31;;;;;;;5.80;5.30;;;14.80;99.90;;;;;;5077824;28;20467;-67
2021/07/01 10:24:14;;;;;;;5.50;5.00;;;14.90;99.90;;;;;;5078707;28;20742;-68
2021/07/01 10:26:44;;;;;;;5.40;4.90;;;14.90;99.90;;;;;;5077527;28;20460;-68
2021/07/01 10:29:12;;;;;;;6.70;5.87;;;14.90;99.90;;;;;;5078170;28;20868;-68
2021/07/01 10:31:48;;;;;;;5.50;5.00;;;14.90;99.90;;;;;;5076848;28;20903;-68
2021/07/01 10:34:15;;;;;;;6.23;5.63;;;14.90;99.90;;;;;;5077415;28;20812;-67
2021/07/01 10:36:42;;;;;;;5.73;5.13;;;15.00;99.90;;;;;;5077679;28;20454;-67
2021/07/01 10:39:09;;;;;;;5.63;5.13;;;15.00;99.90;;;;;;5077657;28;20783;-68
2021/07/01 10:41:41;;;;;;;4.80;4.40;;;15.00;99.90;;;;;;5077415;28;20462;-68
2021/07/01 10:44:21;;;;;;;5.50;5.00;;;15.00;99.90;;;;;;5077046;28;20494;-69
2021/07/01 10:46:48;;;;;;;6.53;5.93;;;15.00;99.90;;;;;;5076921;28;20449;-69
2021/07/01 10:49:17;;;;;;;5.47;4.60;;;15.10;99.90;;;;;;5077769;28;20482;-68
2021/07/01 10:51:55;;;;;;;8.40;6.90;;;15.20;99.90;;;;;;5077118;28;20528;-68
2021/07/01 10:54:22;;;;;;;5.40;4.90;;;15.20;99.90;;;;;;5077580;28;20918;-69
2021/07/01 10:56:54;;;;;;;4.90;4.50;;;15.20;99.90;;;;;;5076834;28;20465;-69
2021/07/01 10:59:21;;;;;;;5.47;4.20;;;15.20;99.90;;;;;;5077028;28;20470;-68
2021/07/01 11:01:52;;;;;;;4.90;4.50;;;15.20;99.90;;;;;;5076870;28;20481;-68
2021/07/01 11:04:20;;;;;;;5.20;4.43;;;15.20;99.90;;;;;;5076747;28;20891;-68
2021/07/01 11:06:59;;;;;;;7.93;5.07;;;15.20;99.90;;;;;;5075713;28;20793;-68
2021/07/01 11:09:26;;;;;;;5.80;5.30;;;15.30;99.90;;;;;;5076886;28;20567;-68
2021/07/01 11:12:03;;;;;;;5.93;5.33;;;15.20;99.90;;;;;;5076792;28;20468;-67
2021/07/01 11:14:39;;;;;;;7.07;5.20;;;15.20;99.90;;;;;;5076878;28;20435;-68
2021/07/01 11:17:06;;;;;;;5.67;5.10;;;15.30;99.90;;;;;;5077186;28;20470;-69
2021/07/01 11:19:40;;;;;;;5.63;5.10;;;15.30;99.90;;;;;;5077016;28;20457;-68
2021/07/01 11:22:08;;;;;;;6.30;5.30;;;15.30;99.90;;;;;;5076846;28;20473;-69
2021/07/01 11:24:38;;;;;;;9.20;5.10;;;15.30;99.90;;;;;;5076743;28;20492;-69
2021/07/01 11:27:06;;;;;;;6.33;5.80;;;15.40;99.90;;;;;;5076115;28;20449;-68
2021/07/01 11:29:38;;;;;;;8.00;5.97;;;15.40;99.90;;;;;;5076328;28;20465;-68
2021/07/01 11:32:15;;;;;;;6.00;5.43;;;15.40;99.90;;;;;;5075971;28;20931;-69
2021/07/01 11:34:44;;;;;;;6.30;5.70;;;15.40;99.90;;;;;;5076454;28;20751;-68
2021/07/01 11:37:11;;;;;;;7.37;6.60;;;15.40;99.90;;;;;;5076008;28;20460;-68
2021/07/01 11:39:38;;;;;;;7.10;6.03;;;15.40;99.90;;;;;;5076131;28;20458;-68
2021/07/01 11:42:07;;;;;;;9.90;6.40;;;15.40;99.90;;;;;;5076771;28;20469;-67
2021/07/01 11:44:35;;;;;;;6.73;6.03;;;15.30;99.90;;;;;;5076085;28;20454;-68
2021/07/01 11:47:03;;;;;;;11.17;7.83;;;15.30;99.90;;;;;;5075451;28;20486;-69
2021/07/01 11:49:31;;;;;;;9.57;8.00;;;15.30;99.90;;;;;;5076054;28;20443;-67
2021/07/01 11:51:59;;;;;;;10.83;7.27;;;15.20;99.90;;;;;;5075847;28;20469;-67
2021/07/01 11:54:26;;;;;;;8.20;7.40;;;15.20;99.90;;;;;;5075612;28;20461;-68
2021/07/01 11:56:54;;;;;;;9.30;7.20;;;15.30;99.90;;;;;;5075708;28;20468;-67
2021/07/01 11:59:24;;;;;;;8.10;7.30;;;15.30;99.90;;;;;;5075194;28;20481;-69
2021/07/01 12:01:50;;;;;;;8.57;7.30;;;15.30;99.90;;;;;;5076067;28;20458;-68
2021/07/01 12:04:18;;;;;;;8.80;7.90;;;15.30;99.90;;;;;;5075605;28;20477;-68
2021/07/01 12:06:53;;;;;;;8.83;7.70;;;15.40;99.90;;;;;;5075686;28;20535;-67
2021/07/01 12:09:21;;;;;;;8.63;7.73;;;15.40;99.90;;;;;;5075490;28;20764;-68
2021/07/01 12:12:10;;;;;;;10.97;7.97;;;15.40;99.90;;;;;;5075862;28;20469;-70
2021/07/01 12:14:40;;;;;;;8.20;7.40;;;15.40;99.90;;;;;;5075855;28;20469;-68
2021/07/01 12:17:07;;;;;;;9.23;8.33;;;15.50;99.90;;;;;;5075286;28;20465;-67
2021/07/01 12:20:01;;;;;;;9.80;8.83;;;15.50;99.90;;;;;;5075160;28;20459;-68
2021/07/01 12:22:42;;;;;;;9.63;8.63;;;15.50;99.90;;;;;;5075848;28;20449;-68
2021/07/01 12:25:12;;;;;;;10.00;9.00;;;15.50;99.90;;;;;;5075848;28;20462;-68
2021/07/01 12:27:38;;;;;;;10.60;9.13;;;15.40;99.90;;;;;;5080192;28;20561;-68
2021/07/01 12:30:07;;;;;;;10.30;9.27;;;15.40;99.90;;;;;;5075368;28;20458;-67
2021/07/01 12:32:34;;;;;;;15.93;9.80;;;15.50;99.90;;;;;;5077177;28;20481;-68
2021/07/01 12:35:38;;;;;;;14.77;10.37;;;15.50;99.90;;;;;;5076913;28;20465;-69
2021/07/01 12:38:11;;;;;;;11.80;10.40;;;15.50;99.90;;;;;;5076294;28;20438;-69
2021/07/01 12:40:55;;;;;;;12.20;11.00;;;15.50;99.90;;;;;;5075823;28;20841;-69
2021/07/01 12:43:58;;;;;;;11.23;10.03;;;15.60;99.90;;;;;;5074976;28;20442;-68
2021/07/01 12:47:01;;;;;;;11.43;10.13;;;15.60;99.90;;;;;;5075036;28;20466;-68
2021/07/01 12:50:02;;;;;;;11.03;10.00;;;15.70;99.90;;;;;;5074558;28;20439;-67
2021/07/01 12:52:43;;;;;;;11.53;10.40;;;15.80;99.90;;;;;;5074769;28;20466;-68